• Join FlightAware (Why Join?)
  • Login
  • US Flag 
12:59AM EDT


 

Airport Tracker/Info


-or-


 

Live Flight TrackerFlight Track Log ✈ UPS1121 ✈ 08-May-2013 ✈ KALB - KBDL

Flight Track Log - Related Links

Times and Time Zones

All times are in EDT time to prevent confusion due to time zone crossing. See the UPS1121 flight status page for this flight to view local times or setup timezone preferences in your user account.

Time Position Orientation Groundspeed Altitude Reporting Facility
EDT Latitude Longitude Course Direction KTS MPH feet Rate Location/Type
08:33PM 42.7319 -73.8081 144° Southeast 147 169 1,800  Level Boston Center
08:35PM 42.6886 -73.7647 144° Southeast 214 246 4,100 2,640 Climbing Boston Center
08:36PM 42.6047 -73.6306 130° Southeast 283 326 9,800 2,460 Climbing Boston Center
08:37PM 42.5317 -73.6347 182° South 245 282 11,100 600 Climbing Boston Center
08:38PM 42.4586 -73.6503 189° South 256 295 11,000 -60 Descending Boston Center
08:39PM 42.3856 -73.6544 182° South 270 311 11,000  Level Boston Center
08:40PM 42.3447 -73.5750 125° Southeast 225 259 11,000  Level Boston Center
08:41PM 42.3039 -73.4983 126° Southeast 247 284 11,000  Level Boston Center
08:42PM 42.2503 -73.4303 137° Southeast 253 291 11,000  Level Boston Center
08:43PM 42.1967 -73.3619 137° Southeast 258 297 11,000 -360 Level Boston Center
08:45PM 42.1325 -73.2828 138° Southeast 264 304 10,300 -1,140 Descending Boston Center
08:46PM 42.0808 -73.2178 137° Southeast 262 302 8,600 -1,740 Descending Boston Center
08:47PM 42.0231 -73.1444 137° Southeast 261 300 6,900 -1,620 Descending Boston Center
08:48PM 41.9714 -73.0822 138° Southeast 256 295 5,400 -1,200 Descending Boston Center
08:49PM 41.9217 -73.0233 139° Southeast 250 288 4,500 -1,080 Descending Boston Center
08:49PM 41.8761 -72.9642 136° Southeast 250 288 3,400 -780 Descending Boston Center
08:50PM 41.8283 -72.9081 139° Southeast 215 247 3,000 -480 Descending Boston Center
08:52PM 41.8267 -72.8469 92° East 174 200 2,500 -480 Descending Boston Center
08:53PM 41.8600 -72.7942 50° Northeast 173 199 2,100 -600 Descending Boston Center
08:54PM 41.8914 -72.7525 45° Northeast 159 183 1,300 -780 Descending Boston Center
08:55PM 41.9144 -72.7247 42° Northeast 131 151 700 -720 Descending Boston Center